createdAt,value
2023-08-07T00:00:31.163Z,590.00
2023-08-07T00:01:31.216Z,595.00
2023-08-07T00:02:31.210Z,598.00
2023-08-07T00:03:31.253Z,600.00
2023-08-07T00:04:31.262Z,595.00
2023-08-07T00:05:31.303Z,605.00
2023-08-07T00:06:31.401Z,607.00
2023-08-07T00:07:31.370Z,604.00
2023-08-07T00:08:31.391Z,599.00
2023-08-07T00:09:31.427Z,613.00
2023-08-07T00:10:31.468Z,612.00
2023-08-07T00:11:31.517Z,613.00
2023-08-07T00:12:31.530Z,611.00
2023-08-07T00:13:31.593Z,604.00
2023-08-07T00:14:31.635Z,608.00
2023-08-07T00:15:31.664Z,604.00
2023-08-07T00:16:31.719Z,608.00
2023-08-07T00:17:31.818Z,614.00
2023-08-07T00:18:31.784Z,617.00
2023-08-07T00:19:31.842Z,624.00
2023-08-07T00:20:31.884Z,624.00
2023-08-07T00:21:31.889Z,621.00
2023-08-07T00:22:31.938Z,632.00
2023-08-07T00:23:31.982Z,633.00
2023-08-07T00:24:32.000Z,622.00
2023-08-07T00:25:32.078Z,635.00
2023-08-07T00:26:32.099Z,625.00
2023-08-07T00:27:32.137Z,627.00
2023-08-07T00:28:32.177Z,631.00
2023-08-07T00:29:32.244Z,633.00
2023-08-07T00:30:32.271Z,624.00
2023-08-07T00:31:32.479Z,618.00
2023-08-07T00:32:32.428Z,618.00
2023-08-07T00:33:32.438Z,624.00
2023-08-07T00:34:32.451Z,630.00
2023-08-07T00:35:32.474Z,624.00
2023-08-07T00:36:32.500Z,632.00
2023-08-07T00:37:32.519Z,627.00
2023-08-07T00:38:32.572Z,629.00
2023-08-07T00:39:32.592Z,623.00
2023-08-07T00:40:32.613Z,628.00
2023-08-07T00:41:32.684Z,628.00
2023-08-07T00:42:32.712Z,634.00
2023-08-07T00:43:32.783Z,625.00
2023-08-07T00:44:32.810Z,642.00
2023-08-07T00:45:32.857Z,630.00
2023-08-07T00:46:32.949Z,617.00
2023-08-07T00:47:32.988Z,618.00
2023-08-07T00:48:33.024Z,632.00
2023-08-07T00:49:33.044Z,634.00
2023-08-07T00:50:46.042Z,624.00
2023-08-07T00:51:34.103Z,624.00
2023-08-07T00:52:33.060Z,617.00
2023-08-07T00:53:33.077Z,624.00
2023-08-07T00:54:33.088Z,624.00
2023-08-07T00:55:33.054Z,613.00
2023-08-07T00:56:33.074Z,602.00
2023-08-07T00:57:33.050Z,605.00
2023-08-07T00:58:33.074Z,609.00
2023-08-07T00:59:33.038Z,611.00
2023-08-07T01:00:33.117Z,605.00
2023-08-07T01:01:33.101Z,607.00
2023-08-07T01:02:33.201Z,606.00
2023-08-07T01:03:33.276Z,604.00
2023-08-07T01:04:33.285Z,595.00
2023-08-07T01:05:33.333Z,597.00
2023-08-07T01:06:33.361Z,596.00
2023-08-07T01:07:33.399Z,596.00
2023-08-07T01:08:33.466Z,593.00
2023-08-07T01:09:33.531Z,588.00
2023-08-07T01:10:33.558Z,598.00
2023-08-07T01:11:33.620Z,594.00
2023-08-07T01:12:33.652Z,601.00
2023-08-07T01:13:33.712Z,599.00
2023-08-07T01:14:33.740Z,588.00
2023-08-07T01:15:33.802Z,599.00
2023-08-07T01:16:33.906Z,592.00
2023-08-07T01:17:33.931Z,591.00
2023-08-07T01:18:33.936Z,594.00
2023-08-07T01:19:33.979Z,603.00
2023-08-07T01:20:34.018Z,594.00
2023-08-07T01:21:34.079Z,593.00
2023-08-07T01:22:34.133Z,595.00
2023-08-07T01:23:34.149Z,594.00
2023-08-07T01:24:34.198Z,598.00
2023-08-07T01:25:34.224Z,588.00
2023-08-07T01:26:34.289Z,588.00
2023-08-07T01:27:34.345Z,590.00
2023-08-07T01:28:34.402Z,584.00
2023-08-07T01:29:34.522Z,589.00
2023-08-07T01:30:34.495Z,583.00
2023-08-07T01:31:34.535Z,581.00
2023-08-07T01:32:34.597Z,591.00
2023-08-07T01:33:34.601Z,596.00
2023-08-07T01:34:34.651Z,602.00
2023-08-07T01:35:34.738Z,602.00
2023-08-07T01:36:34.751Z,598.00
2023-08-07T01:37:34.803Z,594.00
2023-08-07T01:38:34.871Z,596.00
2023-08-07T01:39:34.915Z,606.00
2023-08-07T01:40:34.934Z,598.00
2023-08-07T01:41:35.003Z,582.00
2023-08-07T01:42:35.067Z,594.00
2023-08-07T01:43:35.095Z,587.00
2023-08-07T01:44:35.172Z,592.00
2023-08-07T01:45:35.193Z,583.00
2023-08-07T01:46:35.301Z,579.00
2023-08-07T01:47:35.384Z,581.00
2023-08-07T01:48:35.351Z,584.00
2023-08-07T01:49:35.391Z,580.00
2023-08-07T01:50:35.440Z,576.00
2023-08-07T01:51:35.489Z,562.00
2023-08-07T01:52:35.526Z,551.00
2023-08-07T01:53:35.569Z,554.00
2023-08-07T01:54:35.615Z,558.00
2023-08-07T01:55:35.704Z,561.00
2023-08-07T01:56:35.703Z,563.00
2023-08-07T01:57:35.752Z,558.00
2023-08-07T01:58:35.823Z,554.00
2023-08-07T01:59:35.866Z,563.00
2023-08-07T02:00:35.910Z,563.00
2023-08-07T02:01:35.984Z,553.00
2023-08-07T02:02:36.094Z,545.00
2023-08-07T02:03:36.065Z,547.00
2023-08-07T02:04:36.117Z,548.00
2023-08-07T02:05:36.167Z,550.00
2023-08-07T02:06:36.170Z,541.00
2023-08-07T02:07:36.215Z,530.00
2023-08-07T02:08:36.301Z,541.00
2023-08-07T02:09:36.345Z,534.00
2023-08-07T02:10:36.412Z,534.00
2023-08-07T02:11:36.415Z,527.00
2023-08-07T02:12:36.472Z,521.00
2023-08-07T02:13:36.531Z,516.00
2023-08-07T02:14:36.573Z,517.00
2023-08-07T02:15:36.628Z,526.00
2023-08-07T02:16:36.759Z,530.00
2023-08-07T02:17:36.743Z,532.00
2023-08-07T02:18:36.768Z,541.00
2023-08-07T02:19:36.841Z,532.00
2023-08-07T02:20:36.914Z,540.00
2023-08-07T02:21:37.012Z,529.00
2023-08-07T02:22:37.038Z,525.00
2023-08-07T02:23:37.104Z,516.00
2023-08-07T02:24:37.102Z,522.00
2023-08-07T02:25:37.180Z,523.00
2023-08-07T02:26:37.197Z,523.00
2023-08-07T02:27:37.316Z,531.00
2023-08-07T02:28:37.279Z,537.00
2023-08-07T02:29:37.354Z,531.00
2023-08-07T02:30:37.415Z,540.00
2023-08-07T02:31:37.498Z,540.00
2023-08-07T02:32:37.580Z,534.00
2023-08-07T02:33:37.528Z,532.00
2023-08-07T02:34:37.599Z,531.00
2023-08-07T02:35:37.663Z,535.00
2023-08-07T02:36:37.673Z,537.00
2023-08-07T02:37:37.752Z,533.00
2023-08-07T02:38:37.898Z,542.00
2023-08-07T02:39:37.821Z,545.00
2023-08-07T02:40:37.860Z,541.00
2023-08-07T02:41:37.889Z,546.00
2023-08-07T02:42:37.921Z,547.00
2023-08-07T02:43:38.023Z,550.00
2023-08-07T02:44:38.034Z,547.00
2023-08-07T02:45:38.112Z,547.00
2023-08-07T02:46:38.130Z,543.00
2023-08-07T02:47:38.233Z,547.00
2023-08-07T02:48:38.237Z,541.00
2023-08-07T02:49:38.292Z,542.00
2023-08-07T02:50:38.329Z,544.00
2023-08-07T02:51:38.377Z,533.00
2023-08-07T02:52:38.451Z,540.00
2023-08-07T02:53:38.492Z,532.00
2023-08-07T02:54:38.524Z,535.00
2023-08-07T02:55:38.572Z,534.00
2023-08-07T02:56:38.625Z,535.00
2023-08-07T02:57:38.702Z,523.00
2023-08-07T02:58:38.744Z,520.00
2023-08-07T02:59:38.815Z,509.00
2023-08-07T03:00:38.854Z,508.00
2023-08-07T03:01:38.969Z,509.00
2023-08-07T03:02:39.030Z,523.00
2023-08-07T03:03:39.013Z,510.00
2023-08-07T03:04:39.076Z,516.00
2023-08-07T03:05:39.131Z,513.00
2023-08-07T03:06:39.228Z,504.00
2023-08-07T03:07:39.213Z,506.00
2023-08-07T03:08:39.282Z,499.00
2023-08-07T03:09:39.335Z,503.00
2023-08-07T03:10:39.390Z,515.00
2023-08-07T03:11:39.569Z,515.00
2023-08-07T03:12:39.519Z,508.00
2023-08-07T03:13:39.566Z,518.00
2023-08-07T03:14:39.600Z,520.00
2023-08-07T03:15:39.666Z,524.00
2023-08-07T03:16:39.729Z,525.00
2023-08-07T03:17:39.845Z,528.00
2023-08-07T03:18:39.837Z,528.00
2023-08-07T03:19:39.885Z,521.00
2023-08-07T03:20:39.946Z,534.00
2023-08-07T03:21:40.022Z,539.00
2023-08-07T03:22:40.104Z,534.00
2023-08-07T03:23:40.136Z,531.00
2023-08-07T03:24:40.232Z,538.00
2023-08-07T03:25:40.270Z,537.00
2023-08-07T03:26:40.321Z,542.00
2023-08-07T03:27:40.338Z,543.00
2023-08-07T03:28:40.415Z,537.00
2023-08-07T03:29:40.484Z,540.00
2023-08-07T03:30:40.530Z,543.00
2023-08-07T03:31:40.656Z,532.00
2023-08-07T03:32:40.707Z,538.00
2023-08-07T03:33:40.762Z,540.00
2023-08-07T03:34:40.760Z,538.00
2023-08-07T03:35:40.836Z,541.00
2023-08-07T03:36:40.870Z,553.00
2023-08-07T03:38:40.968Z,556.00
2023-08-07T03:39:40.996Z,540.00
2023-08-07T03:40:41.078Z,541.00
2023-08-07T03:41:41.200Z,541.00
2023-08-07T03:42:41.175Z,537.00
2023-08-07T03:43:41.239Z,538.00
2023-08-07T03:44:41.307Z,531.00
2023-08-07T03:45:41.356Z,539.00
2023-08-07T03:46:41.362Z,552.00
2023-08-07T03:47:41.431Z,556.00
2023-08-07T03:48:41.457Z,553.00
2023-08-07T03:49:41.514Z,551.00
2023-08-07T03:50:41.570Z,554.00
2023-08-07T03:51:41.595Z,550.00
2023-08-07T03:52:41.641Z,561.00
2023-08-07T03:53:41.682Z,556.00
2023-08-07T03:54:41.745Z,551.00
2023-08-07T03:55:41.872Z,558.00
2023-08-07T03:56:41.860Z,564.00
2023-08-07T03:57:41.926Z,556.00
2023-08-07T03:58:41.990Z,562.00
2023-08-07T03:59:42.017Z,562.00
2023-08-07T04:00:42.116Z,563.00
2023-08-07T04:01:42.142Z,565.00
2023-08-07T04:02:42.193Z,560.00
2023-08-07T04:03:42.298Z,550.00
2023-08-07T04:04:42.261Z,546.00
2023-08-07T04:05:42.326Z,549.00
2023-08-07T04:06:42.435Z,534.00
2023-08-07T04:07:42.416Z,546.00
2023-08-07T04:08:42.474Z,545.00
2023-08-07T04:09:42.523Z,539.00
2023-08-07T04:10:42.574Z,549.00
2023-08-07T04:11:42.632Z,542.00
2023-08-07T04:12:42.693Z,533.00
2023-08-07T04:13:42.729Z,537.00
2023-08-07T04:14:42.796Z,544.00
2023-08-07T04:15:42.839Z,542.00
2023-08-07T04:16:42.894Z,547.00
2023-08-07T04:17:43.018Z,551.00
2023-08-07T04:18:42.952Z,551.00
2023-08-07T04:19:42.995Z,539.00
2023-08-07T04:20:43.047Z,549.00
2023-08-07T04:21:43.135Z,554.00
2023-08-07T04:22:43.157Z,555.00
2023-08-07T04:23:43.756Z,556.00
2023-08-07T04:24:43.251Z,557.00
2023-08-07T04:25:43.295Z,550.00
2023-08-07T04:26:43.367Z,554.00
2023-08-07T04:27:43.388Z,550.00
2023-08-07T04:28:43.451Z,548.00
2023-08-07T04:29:43.496Z,557.00
2023-08-07T04:30:43.562Z,554.00
2023-08-07T04:31:43.637Z,560.00
2023-08-07T04:32:43.700Z,563.00
2023-08-07T04:33:43.699Z,558.00
2023-08-07T04:34:43.744Z,557.00
2023-08-07T04:35:43.806Z,549.00
2023-08-07T04:36:43.848Z,550.00
2023-08-07T04:37:43.902Z,548.00
2023-08-07T04:38:43.971Z,538.00
2023-08-07T04:39:44.010Z,548.00
2023-08-07T04:40:44.045Z,548.00
2023-08-07T04:41:44.117Z,544.00
2023-08-07T04:42:44.147Z,553.00
2023-08-07T04:43:44.217Z,549.00
2023-08-07T04:44:44.269Z,551.00
2023-08-07T04:45:44.294Z,558.00
2023-08-07T04:46:44.388Z,554.00
2023-08-07T04:47:44.443Z,549.00
2023-08-07T04:48:44.506Z,543.00
2023-08-07T04:49:44.536Z,544.00
2023-08-07T04:50:44.600Z,544.00
2023-08-07T04:51:44.629Z,541.00
2023-08-07T04:52:44.682Z,548.00
2023-08-07T04:53:44.729Z,546.00
2023-08-07T04:54:44.783Z,543.00
2023-08-07T04:55:44.891Z,540.00
2023-08-07T04:56:44.923Z,546.00
2023-08-07T04:57:44.943Z,550.00
2023-08-07T04:58:45.009Z,541.00
2023-08-07T04:59:45.062Z,544.00
2023-08-07T05:00:45.116Z,543.00
2023-08-07T05:01:45.173Z,549.00
2023-08-07T05:02:45.361Z,553.00
2023-08-07T05:03:45.358Z,553.00
2023-08-07T05:04:45.332Z,561.00
2023-08-07T05:05:45.396Z,549.00
2023-08-07T05:06:45.452Z,562.00
2023-08-07T05:07:45.529Z,550.00
2023-08-07T05:08:45.560Z,552.00
2023-08-07T05:09:45.645Z,559.00
2023-08-07T05:10:45.677Z,573.00
2023-08-07T05:11:45.720Z,576.00
2023-08-07T05:12:45.948Z,577.00
2023-08-07T05:13:45.789Z,577.00
2023-08-07T05:14:45.833Z,578.00
2023-08-07T05:15:45.937Z,581.00
2023-08-07T05:16:46.039Z,589.00
2023-08-07T05:17:46.030Z,572.00
2023-08-07T05:18:46.605Z,563.00
2023-08-07T05:19:46.093Z,570.00
2023-08-07T05:20:46.158Z,570.00
2023-08-07T05:21:46.198Z,568.00
2023-08-07T05:22:46.271Z,570.00
2023-08-07T05:23:46.290Z,570.00
2023-08-07T05:24:46.339Z,567.00
2023-08-07T05:25:47.788Z,567.00
2023-08-07T05:26:46.404Z,561.00
2023-08-07T05:27:46.417Z,567.00
2023-08-07T05:28:46.384Z,568.00
2023-08-07T05:29:46.361Z,560.00
2023-08-07T05:30:46.415Z,554.00
2023-08-07T05:31:46.360Z,549.00
2023-08-07T05:32:46.389Z,558.00
2023-08-07T05:33:46.388Z,561.00
2023-08-07T05:34:46.320Z,550.00
2023-08-07T05:35:46.325Z,554.00
2023-08-07T05:36:46.325Z,547.00
2023-08-07T05:37:46.340Z,547.00
2023-08-07T05:38:46.284Z,543.00
2023-08-07T05:39:46.308Z,541.00
2023-08-07T05:40:46.299Z,537.00
2023-08-07T05:41:46.344Z,546.00
2023-08-07T05:42:46.292Z,535.00
2023-08-07T05:43:46.284Z,535.00
2023-08-07T05:44:46.246Z,528.00
2023-08-07T05:45:46.254Z,539.00
2023-08-07T05:46:46.238Z,538.00
2023-08-07T05:47:46.292Z,529.00
2023-08-07T05:48:46.216Z,536.00
2023-08-07T05:49:46.206Z,533.00
2023-08-07T05:50:46.228Z,534.00
2023-08-07T05:51:46.222Z,533.00
2023-08-07T05:52:46.192Z,524.00
2023-08-07T05:53:46.183Z,535.00
2023-08-07T05:54:46.201Z,529.00
2023-08-07T05:55:46.207Z,535.00
2023-08-07T05:56:46.165Z,536.00
2023-08-07T05:57:46.164Z,551.00
2023-08-07T05:58:46.180Z,549.00
2023-08-07T05:59:46.148Z,563.00
2023-08-07T06:00:46.143Z,566.00
2023-08-07T06:01:46.209Z,564.00
2023-08-07T06:02:46.165Z,570.00
2023-08-07T06:03:46.207Z,569.00
2023-08-07T06:04:46.109Z,572.00
2023-08-07T06:05:46.101Z,584.00
2023-08-07T06:06:46.086Z,592.00
2023-08-07T06:07:46.157Z,598.00
2023-08-07T06:08:46.201Z,601.00
2023-08-07T06:09:46.225Z,606.00
2023-08-07T06:10:46.263Z,605.00
2023-08-07T06:11:46.303Z,603.00
2023-08-07T06:12:46.346Z,605.00
2023-08-07T06:13:46.407Z,619.00
2023-08-07T06:14:46.474Z,628.00
2023-08-07T06:15:46.472Z,627.00
2023-08-07T06:16:46.573Z,638.00
2023-08-07T06:17:46.563Z,634.00
2023-08-07T06:18:46.615Z,643.00
2023-08-07T06:19:46.630Z,642.00
2023-08-07T06:20:46.697Z,645.00
2023-08-07T06:21:46.724Z,652.00
2023-08-07T06:22:46.760Z,652.00
2023-08-07T06:23:46.856Z,650.00
2023-08-07T06:24:46.881Z,647.00
2023-08-07T06:25:46.892Z,637.00
2023-08-07T06:26:46.954Z,638.00
2023-08-07T06:27:46.992Z,644.00
2023-08-07T06:28:47.042Z,648.00
2023-08-07T06:29:47.080Z,663.00
2023-08-07T06:30:47.132Z,663.00
2023-08-07T06:31:47.173Z,666.00
2023-08-07T06:32:47.196Z,672.00
2023-08-07T06:33:47.243Z,721.00
2023-08-07T06:34:47.309Z,751.00
2023-08-07T06:35:47.316Z,752.00
2023-08-07T06:36:47.350Z,722.00
2023-08-07T06:37:47.402Z,734.00
2023-08-07T06:38:47.442Z,710.00
2023-08-07T06:39:49.571Z,711.00
2023-08-07T06:40:47.544Z,715.00
2023-08-07T06:41:47.564Z,719.00
2023-08-07T06:42:47.603Z,708.00
2023-08-07T06:43:47.672Z,709.00
2023-08-07T06:44:47.676Z,665.00
2023-08-07T06:45:47.738Z,665.00
2023-08-07T06:46:47.747Z,654.00
2023-08-07T06:47:47.869Z,638.00
2023-08-07T06:48:47.830Z,644.00
2023-08-07T06:49:47.839Z,635.00
2023-08-07T06:50:47.874Z,633.00
2023-08-07T06:51:47.900Z,638.00
2023-08-07T06:52:47.942Z,649.00
2023-08-07T06:53:47.964Z,645.00
2023-08-07T06:54:48.027Z,647.00
2023-08-07T06:55:48.000Z,641.00
2023-08-07T06:56:48.038Z,658.00
2023-08-07T06:57:48.085Z,661.00
2023-08-07T06:58:48.111Z,658.00
2023-08-07T06:59:48.153Z,654.00
2023-08-07T07:00:48.127Z,660.00
2023-08-07T07:01:48.244Z,651.00
2023-08-07T07:02:48.194Z,656.00
2023-08-07T07:03:48.353Z,655.00
2023-08-07T07:04:48.239Z,643.00
2023-08-07T07:05:48.225Z,624.00
2023-08-07T07:06:48.258Z,618.00
2023-08-07T07:07:48.270Z,622.00
2023-08-07T07:08:48.295Z,630.00
2023-08-07T07:09:48.330Z,633.00
2023-08-07T07:10:48.344Z,642.00
2023-08-07T07:11:48.368Z,632.00
2023-08-07T07:12:48.381Z,640.00
2023-08-07T07:13:48.449Z,658.00
2023-08-07T07:14:48.483Z,663.00
2023-08-07T07:15:48.544Z,705.00
2023-08-07T07:16:48.499Z,725.00
2023-08-07T07:17:48.599Z,694.00
2023-08-07T07:18:48.596Z,726.00
2023-08-07T07:19:48.557Z,726.00
2023-08-07T07:20:48.597Z,721.00
2023-08-07T07:21:48.608Z,734.00
2023-08-07T07:22:48.645Z,742.00
2023-08-07T07:23:48.627Z,738.00
2023-08-07T07:24:48.661Z,728.00
2023-08-07T07:25:48.667Z,720.00
2023-08-07T07:26:48.776Z,730.00
2023-08-07T07:27:48.874Z,763.00
2023-08-07T07:28:48.871Z,801.00
2023-08-07T07:29:48.888Z,818.00
2023-08-07T07:30:48.952Z,794.00
2023-08-07T07:31:48.910Z,818.00
2023-08-07T07:32:49.017Z,848.00
2023-08-07T07:33:48.997Z,858.00
2023-08-07T07:34:49.012Z,841.00
2023-08-07T07:35:49.013Z,857.00
2023-08-07T07:36:49.044Z,866.00
2023-08-07T07:37:49.045Z,850.00
2023-08-07T07:38:49.154Z,842.00
2023-08-07T07:39:49.162Z,833.00
2023-08-07T07:40:49.163Z,826.00
2023-08-07T07:41:49.169Z,804.00
2023-08-07T07:42:49.193Z,788.00
2023-08-07T07:43:49.227Z,769.00
2023-08-07T07:44:49.211Z,766.00
2023-08-07T07:45:49.302Z,748.00
2023-08-07T07:46:49.226Z,754.00
2023-08-07T07:47:49.277Z,750.00
2023-08-07T07:48:49.247Z,767.00
2023-08-07T07:49:49.267Z,773.00
2023-08-07T07:50:49.245Z,825.00
2023-08-07T07:51:49.248Z,841.00
2023-08-07T07:52:49.280Z,870.00
2023-08-07T07:53:57.523Z,862.00
2023-08-07T07:54:50.255Z,864.00
2023-08-07T07:55:49.251Z,872.00
2023-08-07T07:56:49.218Z,884.00
2023-08-07T07:57:49.225Z,899.00
2023-08-07T07:58:49.231Z,920.00
2023-08-07T07:59:49.246Z,938.00
2023-08-07T08:00:49.215Z,904.00
2023-08-07T08:01:49.208Z,884.00
2023-08-07T08:02:49.213Z,875.00
2023-08-07T08:03:49.194Z,849.00
2023-08-07T08:04:49.310Z,839.00
2023-08-07T08:05:49.172Z,829.00
2023-08-07T08:06:49.174Z,831.00
2023-08-07T08:07:49.142Z,828.00
2023-08-07T08:08:49.176Z,837.00
2023-08-07T08:09:49.151Z,817.00
2023-08-07T08:10:49.307Z,836.00
2023-08-07T08:11:49.136Z,849.00
2023-08-07T08:12:49.114Z,858.00
2023-08-07T08:13:50.113Z,861.00
2023-08-07T08:14:56.271Z,890.00
2023-08-07T08:15:50.116Z,894.00
2023-08-07T08:16:49.083Z,914.00
2023-08-07T08:17:49.138Z,968.00
2023-08-07T08:18:49.061Z,1066.00
2023-08-07T08:19:50.863Z,1178.00
2023-08-07T08:20:49.415Z,1225.00
2023-08-07T08:21:49.065Z,1232.00
2023-08-07T08:22:49.061Z,1196.00
2023-08-07T08:23:49.063Z,1150.00
2023-08-07T08:24:49.145Z,1127.00
2023-08-07T08:25:49.035Z,1060.00
2023-08-07T08:26:49.009Z,1029.00
2023-08-07T08:27:49.033Z,978.00
2023-08-07T08:28:49.054Z,952.00
2023-08-07T08:29:49.059Z,933.00
2023-08-07T08:30:49.046Z,898.00
2023-08-07T08:31:49.046Z,960.00
2023-08-07T08:32:49.172Z,974.00
2023-08-07T08:33:49.116Z,995.00
2023-08-07T08:34:49.183Z,1004.00
2023-08-07T08:35:49.253Z,1027.00
2023-08-07T08:36:49.309Z,1049.00
2023-08-07T08:37:49.365Z,1093.00
2023-08-07T08:38:49.686Z,1135.00
2023-08-07T08:39:49.457Z,1238.00
2023-08-07T08:40:49.506Z,1277.00
2023-08-07T08:41:49.536Z,1379.00
2023-08-07T08:42:49.586Z,1372.00
2023-08-07T08:43:49.660Z,1369.00
2023-08-07T08:44:49.682Z,1365.00
2023-08-07T08:45:49.748Z,1376.00
2023-08-07T08:46:49.788Z,1358.00
2023-08-07T08:47:49.887Z,1396.00
2023-08-07T08:48:49.882Z,1334.00
2023-08-07T08:49:49.935Z,1297.00
2023-08-07T08:50:49.993Z,1348.00
2023-08-07T08:51:50.012Z,1418.00
2023-08-07T08:52:50.048Z,1438.00
2023-08-07T08:53:50.043Z,1416.00
2023-08-07T08:54:50.078Z,1459.00
2023-08-07T08:55:50.089Z,1510.00
2023-08-07T08:56:50.100Z,1483.00
2023-08-07T08:57:50.127Z,1586.00
2023-08-07T08:58:50.178Z,1611.00
2023-08-07T08:59:50.158Z,1646.00
2023-08-07T09:00:50.188Z,1643.00
2023-08-07T09:01:50.163Z,1664.00
2023-08-07T09:02:50.213Z,1675.00
2023-08-07T09:03:50.248Z,1635.00
2023-08-07T09:04:50.197Z,1622.00
2023-08-07T09:05:50.231Z,1609.00
2023-08-07T09:06:50.230Z,1625.00
2023-08-07T09:07:50.236Z,1613.00
2023-08-07T09:08:50.229Z,1628.00
2023-08-07T09:09:50.248Z,1633.00
2023-08-07T09:10:50.263Z,1525.00
2023-08-07T09:11:50.242Z,1459.00
2023-08-07T09:12:50.298Z,1485.00
2023-08-07T09:13:50.282Z,1510.00
2023-08-07T09:14:50.292Z,1471.00
2023-08-07T09:15:50.296Z,1486.00
2023-08-07T09:16:50.361Z,1449.00
2023-08-07T09:17:50.368Z,1424.00
2023-08-07T09:18:50.339Z,1470.00
2023-08-07T09:19:50.318Z,1411.00
2023-08-07T09:20:50.320Z,1456.00
2023-08-07T09:21:50.328Z,1422.00
2023-08-07T09:22:50.341Z,1356.00
2023-08-07T09:23:50.357Z,1399.00
2023-08-07T09:24:50.371Z,1372.00
2023-08-07T09:25:50.393Z,1411.00
2023-08-07T09:26:50.463Z,1439.00
2023-08-07T09:27:50.415Z,1432.00
2023-08-07T09:28:50.448Z,1451.00
2023-08-07T09:29:50.452Z,1425.00
2023-08-07T09:30:50.451Z,1413.00
2023-08-07T09:31:50.454Z,1363.00
2023-08-07T09:32:50.502Z,1296.00
2023-08-07T09:33:50.482Z,1302.00
2023-08-07T09:34:50.456Z,1331.00
2023-08-07T09:35:50.477Z,1309.00
2023-08-07T09:36:50.457Z,1361.00
2023-08-07T09:37:50.477Z,1372.00
2023-08-07T09:38:50.487Z,1346.00
2023-08-07T09:39:50.460Z,1400.00
2023-08-07T09:40:50.445Z,1358.00
2023-08-07T09:41:50.488Z,1379.00
2023-08-07T09:42:50.458Z,1366.00
2023-08-07T09:43:50.477Z,1377.00
2023-08-07T09:44:50.493Z,1368.00
2023-08-07T09:45:50.469Z,1326.00
2023-08-07T09:46:50.524Z,1276.00
2023-08-07T09:47:50.535Z,1236.00
2023-08-07T09:48:50.497Z,1236.00
2023-08-07T09:49:50.526Z,1294.00
2023-08-07T09:50:50.519Z,1278.00
2023-08-07T09:51:50.496Z,1201.00
2023-08-07T09:52:50.500Z,1189.00
2023-08-07T09:53:50.510Z,1132.00
2023-08-07T09:54:50.504Z,1066.00
2023-08-07T09:55:50.498Z,1033.00
2023-08-07T09:56:50.521Z,1125.00
2023-08-07T09:57:50.495Z,1123.00
2023-08-07T09:58:50.565Z,1140.00
2023-08-07T09:59:50.507Z,1119.00
2023-08-07T10:00:50.489Z,1078.00
2023-08-07T10:01:50.585Z,1075.00
2023-08-07T10:02:50.778Z,1020.00
2023-08-07T10:03:50.574Z,1059.00
2023-08-07T10:04:50.494Z,1054.00
2023-08-07T10:05:50.483Z,1000.00
2023-08-07T10:06:50.505Z,968.00
2023-08-07T10:07:50.503Z,962.00
2023-08-07T10:08:50.527Z,923.00
2023-08-07T10:09:50.523Z,864.00
2023-08-07T10:10:50.524Z,818.00
2023-08-07T10:11:50.532Z,768.00
2023-08-07T10:12:50.562Z,743.00
2023-08-07T10:13:50.554Z,763.00
2023-08-07T10:14:50.590Z,680.00
2023-08-07T10:15:50.551Z,651.00
2023-08-07T10:16:50.560Z,641.00
2023-08-07T10:17:50.579Z,656.00
2023-08-07T10:18:50.578Z,640.00
2023-08-07T10:19:50.594Z,622.00
2023-08-07T10:20:50.567Z,636.00
2023-08-07T10:21:50.583Z,655.00
2023-08-07T10:22:50.600Z,659.00
2023-08-07T10:23:50.622Z,681.00
2023-08-07T10:24:50.642Z,682.00
2023-08-07T10:25:50.660Z,676.00
2023-08-07T10:26:50.623Z,691.00
2023-08-07T10:27:50.644Z,656.00
2023-08-07T10:28:50.631Z,656.00
2023-08-07T10:29:50.674Z,613.00
2023-08-07T10:30:50.667Z,598.00
2023-08-07T10:31:50.699Z,605.00
2023-08-07T10:32:50.685Z,617.00
2023-08-07T10:33:50.651Z,593.00
2023-08-07T10:34:50.691Z,609.00
2023-08-07T10:35:50.665Z,612.00
2023-08-07T10:36:50.699Z,611.00
2023-08-07T10:37:50.675Z,622.00
2023-08-07T10:38:50.696Z,628.00
2023-08-07T10:39:50.716Z,643.00
2023-08-07T10:40:50.744Z,713.00
2023-08-07T10:41:50.810Z,721.00
2023-08-07T10:42:50.902Z,742.00
2023-08-07T10:43:50.920Z,734.00
2023-08-07T10:44:51.002Z,801.00
2023-08-07T10:45:51.058Z,886.00
2023-08-07T10:46:51.085Z,813.00
2023-08-07T10:47:51.169Z,897.00
2023-08-07T10:48:51.192Z,903.00
2023-08-07T10:49:51.260Z,974.00
2023-08-07T10:50:51.429Z,981.00
2023-08-07T10:51:51.448Z,1039.00
2023-08-07T10:52:51.432Z,1056.00
2023-08-07T10:53:51.512Z,1108.00
2023-08-07T10:54:51.510Z,1087.00
2023-08-07T10:55:51.588Z,1081.00
2023-08-07T10:56:51.645Z,1122.00
2023-08-07T10:57:51.683Z,1125.00
2023-08-07T10:58:51.760Z,1166.00
2023-08-07T10:59:51.821Z,1175.00
2023-08-07T11:00:51.868Z,1160.00
2023-08-07T11:01:52.014Z,1141.00
2023-08-07T11:02:51.968Z,1108.00
2023-08-07T11:03:52.002Z,1088.00
2023-08-07T11:04:52.124Z,1066.00
2023-08-07T11:05:52.104Z,1124.00
2023-08-07T11:06:52.280Z,1138.00
2023-08-07T11:07:52.192Z,1140.00
2023-08-07T11:08:52.248Z,1183.00
2023-08-07T11:09:52.297Z,1199.00
2023-08-07T11:10:52.377Z,1193.00
2023-08-07T11:11:52.430Z,1180.00
2023-08-07T11:12:52.463Z,1116.00
2023-08-07T11:13:52.542Z,1128.00
2023-08-07T11:14:52.600Z,1099.00
2023-08-07T11:15:52.655Z,1037.00
2023-08-07T11:16:52.636Z,978.00
2023-08-07T11:17:52.678Z,835.00
2023-08-07T11:18:52.693Z,750.00
2023-08-07T11:19:52.690Z,694.00
2023-08-07T11:20:52.716Z,660.00
2023-08-07T11:21:52.712Z,624.00
2023-08-07T11:22:52.773Z,617.00
2023-08-07T11:23:52.721Z,592.00
2023-08-07T11:24:52.730Z,574.00
2023-08-07T11:25:52.704Z,560.00
2023-08-07T11:26:52.803Z,555.00
2023-08-07T11:27:52.703Z,541.00
2023-08-07T11:28:52.710Z,543.00
2023-08-07T11:29:52.714Z,527.00
2023-08-07T11:30:52.729Z,527.00
2023-08-07T11:31:52.852Z,500.00
2023-08-07T11:32:52.748Z,506.00
2023-08-07T11:33:52.769Z,509.00
2023-08-07T11:34:52.861Z,501.00
2023-08-07T11:35:52.770Z,500.00
2023-08-07T11:36:52.783Z,500.00
2023-08-07T11:37:52.793Z,504.00
2023-08-07T11:38:53.035Z,508.00
2023-08-07T11:39:52.847Z,506.00
2023-08-07T11:40:52.803Z,504.00
2023-08-07T11:41:52.825Z,500.00
2023-08-07T11:42:52.831Z,511.00
2023-08-07T11:43:52.906Z,510.00
2023-08-07T11:44:52.838Z,515.00
2023-08-07T11:45:52.917Z,505.00
2023-08-07T11:46:52.880Z,511.00
2023-08-07T11:47:52.953Z,512.00
2023-08-07T11:48:52.891Z,512.00
2023-08-07T11:49:52.928Z,510.00
2023-08-07T11:50:52.907Z,507.00
2023-08-07T11:51:52.920Z,504.00
2023-08-07T11:52:52.927Z,500.00
2023-08-07T11:53:52.952Z,505.00
2023-08-07T11:54:52.951Z,507.00
2023-08-07T11:55:52.969Z,506.00
2023-08-07T11:56:52.968Z,508.00
2023-08-07T11:57:52.988Z,511.00
2023-08-07T11:58:52.995Z,505.00
2023-08-07T11:59:53.039Z,501.00
2023-08-07T12:00:53.072Z,503.00
2023-08-07T12:01:53.096Z,502.00
2023-08-07T12:02:53.108Z,504.00
2023-08-07T12:03:53.107Z,500.00
2023-08-07T12:04:53.086Z,505.00
2023-08-07T12:05:53.104Z,502.00
2023-08-07T12:06:53.106Z,507.00
2023-08-07T12:07:53.130Z,501.00
2023-08-07T12:08:53.101Z,516.00
2023-08-07T12:09:53.099Z,511.00
2023-08-07T12:10:53.098Z,507.00
2023-08-07T12:11:53.185Z,509.00
2023-08-07T12:12:53.138Z,508.00
2023-08-07T12:13:53.168Z,517.00
2023-08-07T12:14:53.197Z,519.00
2023-08-07T12:15:53.218Z,533.00
2023-08-07T12:16:53.205Z,530.00
2023-08-07T12:17:53.260Z,526.00
2023-08-07T12:18:53.279Z,543.00
2023-08-07T12:19:53.291Z,542.00
2023-08-07T12:20:53.282Z,551.00
2023-08-07T12:21:53.323Z,555.00
2023-08-07T12:22:53.321Z,572.00
2023-08-07T12:23:53.365Z,580.00
2023-08-07T12:24:53.353Z,569.00
2023-08-07T12:25:53.399Z,560.00